createdAt,value
2024-02-23T00:01:09.793Z,0.82
2024-02-23T00:03:38.121Z,1.10
2024-02-23T00:06:06.578Z,0.68
2024-02-23T00:08:35.947Z,0.85
2024-02-23T00:11:04.521Z,1.00
2024-02-23T00:13:32.826Z,1.00
2024-02-23T00:16:00.773Z,1.08
2024-02-23T00:18:29.155Z,0.65
2024-02-23T00:20:57.535Z,0.90
2024-02-23T00:23:25.743Z,0.68
2024-02-23T00:25:55.264Z,0.93
2024-02-23T00:28:23.250Z,0.82
2024-02-23T00:30:51.154Z,1.20
2024-02-23T00:33:19.152Z,0.80
2024-02-23T00:35:47.142Z,1.05
2024-02-23T00:38:15.180Z,0.80
2024-02-23T00:40:43.180Z,0.68
2024-02-23T00:43:12.485Z,0.70
2024-02-23T00:45:40.470Z,0.90
2024-02-23T00:48:09.472Z,0.60
2024-02-23T00:50:37.467Z,0.70
2024-02-23T00:53:05.764Z,0.50
2024-02-23T00:55:33.804Z,0.60
2024-02-23T00:58:01.736Z,0.40
2024-02-23T01:00:31.106Z,0.50
2024-02-23T01:03:00.917Z,0.80
2024-02-23T01:05:28.931Z,0.30
2024-02-23T01:07:56.915Z,0.63
2024-02-23T01:10:24.862Z,0.50
2024-02-23T01:12:52.939Z,0.40
2024-02-23T01:15:20.975Z,0.40
2024-02-23T01:17:50.264Z,0.65
2024-02-23T01:20:18.565Z,0.40
2024-02-23T01:22:46.579Z,0.70
2024-02-23T01:25:16.697Z,0.60
2024-02-23T01:27:45.502Z,0.95
2024-02-23T01:30:14.110Z,1.15
2024-02-23T01:32:42.307Z,0.57
2024-02-23T01:35:15.233Z,0.60
2024-02-23T01:37:43.300Z,0.50
2024-02-23T01:40:11.758Z,0.90
2024-02-23T01:42:39.644Z,0.57
2024-02-23T01:45:09.003Z,0.70
2024-02-23T01:47:37.338Z,0.50
2024-02-23T01:50:06.491Z,0.60
2024-02-23T01:52:36.619Z,0.45
2024-02-23T01:55:04.929Z,0.60
2024-02-23T01:57:45.345Z,0.70
2024-02-23T02:00:19.985Z,0.82
2024-02-23T02:02:54.402Z,0.70
2024-02-23T02:05:23.398Z,0.70
2024-02-23T02:08:00.079Z,0.70
2024-02-23T02:10:28.461Z,0.60
2024-02-23T02:12:56.396Z,0.70
2024-02-23T02:15:24.408Z,0.70
2024-02-23T02:17:52.358Z,0.77
2024-02-23T02:20:25.783Z,0.73
2024-02-23T02:22:55.329Z,0.90
2024-02-23T02:25:23.358Z,0.80
2024-02-23T02:27:51.383Z,0.80
2024-02-23T02:30:19.488Z,0.80
2024-02-23T02:32:47.518Z,0.70
2024-02-23T02:35:15.815Z,0.90
2024-02-23T02:37:43.738Z,0.80
2024-02-23T02:40:13.595Z,0.95
2024-02-23T02:42:41.531Z,1.10
2024-02-23T02:45:09.880Z,1.10
2024-02-23T02:47:38.224Z,1.10
2024-02-23T02:50:07.767Z,1.30
2024-02-23T02:52:35.913Z,1.35
2024-02-23T02:55:03.957Z,1.05
2024-02-23T02:57:33.299Z,1.40
2024-02-23T03:00:01.400Z,1.30
2024-02-23T03:02:29.546Z,1.40
2024-02-23T03:04:57.611Z,1.50
2024-02-23T03:07:25.624Z,1.10
2024-02-23T03:09:53.611Z,1.30
2024-02-23T03:12:21.595Z,1.10
2024-02-23T03:14:51.003Z,1.08
2024-02-23T03:17:19.000Z,1.40
2024-02-23T03:19:47.183Z,1.50
2024-02-23T03:22:15.271Z,1.50
2024-02-23T03:24:43.203Z,1.10
2024-02-23T03:27:11.741Z,0.98
2024-02-23T03:29:40.695Z,1.15
2024-02-23T03:32:11.312Z,1.00
2024-02-23T03:34:39.432Z,1.13
2024-02-23T03:37:07.438Z,1.30
2024-02-23T03:39:35.488Z,1.65
2024-02-23T03:42:03.488Z,1.30
2024-02-23T03:44:32.778Z,1.05
2024-02-23T03:47:00.855Z,1.30
2024-02-23T03:49:30.148Z,1.10
2024-02-23T03:51:58.191Z,1.23
2024-02-23T03:54:26.150Z,1.10
2024-02-23T03:56:54.217Z,1.10
2024-02-23T03:59:22.195Z,0.90
2024-02-23T04:01:50.264Z,1.10
2024-02-23T04:04:18.375Z,1.00
2024-02-23T04:06:47.761Z,1.05
2024-02-23T04:09:15.838Z,1.03
2024-02-23T04:11:43.917Z,0.90
2024-02-23T04:14:11.950Z,1.27
2024-02-23T04:16:39.864Z,1.25
2024-02-23T04:19:09.586Z,1.00
2024-02-23T04:21:38.799Z,0.90
2024-02-23T04:24:09.827Z,1.27
2024-02-23T04:26:38.026Z,0.85
2024-02-23T04:29:06.216Z,1.15
2024-02-23T04:31:34.255Z,1.33
2024-02-23T04:34:02.159Z,1.30
2024-02-23T04:36:30.314Z,1.33
2024-02-23T04:38:58.207Z,1.23
2024-02-23T04:41:28.300Z,1.00
2024-02-23T04:44:02.864Z,0.85
2024-02-23T04:46:32.764Z,1.02
2024-02-23T04:49:00.805Z,1.00
2024-02-23T04:51:28.821Z,1.02
2024-02-23T04:53:56.718Z,0.80
2024-02-23T04:56:24.750Z,1.02
2024-02-23T04:58:54.415Z,1.00
2024-02-23T05:01:22.386Z,1.13
2024-02-23T05:03:50.593Z,0.70
2024-02-23T05:06:18.617Z,1.10
2024-02-23T05:08:46.656Z,1.23
2024-02-23T05:11:16.950Z,1.55
2024-02-23T05:13:44.960Z,1.25
2024-02-23T05:16:16.158Z,0.85
2024-02-23T05:18:44.604Z,1.08
2024-02-23T05:21:12.621Z,1.40
2024-02-23T05:23:40.588Z,1.00
2024-02-23T05:26:09.673Z,1.00
2024-02-23T05:28:39.138Z,1.27
2024-02-23T05:31:07.187Z,1.52
2024-02-23T05:33:36.605Z,1.30
2024-02-23T05:36:06.133Z,1.20
2024-02-23T05:38:34.178Z,1.02
2024-02-23T05:41:02.443Z,1.02
2024-02-23T05:43:30.600Z,1.15
2024-02-23T05:45:59.924Z,1.40
2024-02-23T05:48:28.272Z,1.17
2024-02-23T05:50:57.636Z,1.40
2024-02-23T05:53:25.718Z,1.10
2024-02-23T05:55:53.698Z,1.33
2024-02-23T05:58:22.176Z,1.00
2024-02-23T06:00:51.104Z,1.30
2024-02-23T06:03:19.682Z,1.10
2024-02-23T06:05:47.845Z,1.13
2024-02-23T06:08:17.357Z,1.58
2024-02-23T06:10:45.421Z,1.10
2024-02-23T06:13:13.416Z,1.13
2024-02-23T06:15:41.923Z,1.00
2024-02-23T06:18:10.127Z,1.48
2024-02-23T06:20:38.151Z,1.40
2024-02-23T06:23:08.229Z,1.25
2024-02-23T06:25:37.663Z,0.90
2024-02-23T06:28:06.099Z,1.50
2024-02-23T06:30:34.167Z,0.98
2024-02-23T06:33:02.382Z,1.35
2024-02-23T06:35:30.419Z,1.10
2024-02-23T06:37:58.620Z,1.13
2024-02-23T06:40:34.035Z,1.25
2024-02-23T06:43:10.293Z,1.13
2024-02-23T06:45:38.367Z,1.40
2024-02-23T06:48:07.091Z,1.30
2024-02-23T06:50:35.153Z,0.90
2024-02-23T06:53:03.434Z,1.00
2024-02-23T06:55:31.900Z,1.65
2024-02-23T06:57:59.810Z,1.00
2024-02-23T07:00:29.485Z,1.40
2024-02-23T07:03:00.001Z,1.55
2024-02-23T07:05:28.237Z,1.08
2024-02-23T07:07:56.176Z,1.35
2024-02-23T07:10:26.278Z,1.05
2024-02-23T07:12:55.420Z,1.08
2024-02-23T07:15:23.629Z,1.00
2024-02-23T07:17:53.006Z,0.90
2024-02-23T07:20:20.910Z,1.27
2024-02-23T07:22:49.094Z,1.13
2024-02-23T07:25:18.705Z,0.90
2024-02-23T07:27:47.033Z,1.05
2024-02-23T07:30:15.465Z,1.00
2024-02-23T07:32:43.535Z,0.82
2024-02-23T07:35:13.307Z,0.90
2024-02-23T07:37:41.485Z,1.05
2024-02-23T07:40:10.255Z,1.08
2024-02-23T07:42:38.351Z,0.88
2024-02-23T07:45:07.254Z,1.15
2024-02-23T07:47:35.468Z,1.00
2024-02-23T07:50:03.836Z,0.98
2024-02-23T07:52:33.288Z,1.00
2024-02-23T07:55:03.927Z,1.10
2024-02-23T07:57:32.602Z,0.82
2024-02-23T08:00:00.781Z,1.15
2024-02-23T08:02:28.876Z,0.80
2024-02-23T08:04:56.992Z,0.80
2024-02-23T08:07:26.797Z,0.90
2024-02-23T08:09:56.389Z,0.90
2024-02-23T08:12:24.591Z,1.15
2024-02-23T08:14:54.506Z,1.38
2024-02-23T08:17:23.113Z,1.00
2024-02-23T08:19:51.179Z,1.00
2024-02-23T08:22:19.219Z,1.10
2024-02-23T08:24:47.093Z,0.80
2024-02-23T08:27:16.526Z,1.05
2024-02-23T08:29:44.968Z,1.43
2024-02-23T08:32:14.160Z,0.98
2024-02-23T08:34:42.256Z,0.93
2024-02-23T08:37:10.290Z,1.00
2024-02-23T08:39:38.340Z,0.70
2024-02-23T08:42:06.596Z,1.05
2024-02-23T08:44:36.517Z,1.02
2024-02-23T08:47:04.720Z,0.70
2024-02-23T08:49:32.749Z,0.90
2024-02-23T08:52:01.016Z,1.00
2024-02-23T08:54:28.929Z,1.27
2024-02-23T08:56:56.854Z,1.00
2024-02-23T08:59:24.832Z,1.65
2024-02-23T09:01:54.389Z,1.20
2024-02-23T09:04:22.433Z,0.60
2024-02-23T09:06:52.772Z,0.60
2024-02-23T09:09:21.699Z,1.25
2024-02-23T09:11:49.731Z,1.00
2024-02-23T09:14:17.695Z,0.70
2024-02-23T09:16:47.139Z,0.80
2024-02-23T09:19:16.588Z,0.80
2024-02-23T09:21:44.785Z,1.40
2024-02-23T09:24:12.975Z,0.93
2024-02-23T09:26:41.377Z,1.27
2024-02-23T09:29:10.668Z,1.25
2024-02-23T09:31:38.715Z,0.73
2024-02-23T09:34:06.729Z,1.00
2024-02-23T09:36:36.341Z,1.00
2024-02-23T09:39:05.720Z,1.00
2024-02-23T09:41:35.453Z,1.27
2024-02-23T09:44:04.601Z,0.80
2024-02-23T09:46:33.184Z,1.95
2024-02-23T09:49:04.432Z,0.85
2024-02-23T09:51:35.987Z,1.17
2024-02-23T09:54:05.545Z,0.80
2024-02-23T09:56:35.000Z,0.90
2024-02-23T09:59:05.598Z,0.90
2024-02-23T10:01:34.657Z,0.88
2024-02-23T10:04:05.867Z,1.00
2024-02-23T10:06:34.640Z,1.00
2024-02-23T10:09:05.488Z,0.98
2024-02-23T10:11:35.121Z,0.98
2024-02-23T10:14:03.789Z,1.30
2024-02-23T10:16:31.858Z,1.20
2024-02-23T10:19:00.085Z,0.90
2024-02-23T10:21:29.916Z,0.90
2024-02-23T10:23:57.942Z,0.98
2024-02-23T10:26:27.432Z,0.95
2024-02-23T10:28:59.771Z,0.88
2024-02-23T10:31:27.806Z,0.73
2024-02-23T10:33:59.519Z,0.90
2024-02-23T10:36:32.570Z,1.20
2024-02-23T10:39:04.300Z,0.98
2024-02-23T10:41:36.644Z,1.33
2024-02-23T10:44:06.496Z,1.02
2024-02-23T10:46:34.939Z,1.20
2024-02-23T10:49:04.033Z,0.73
2024-02-23T10:51:33.171Z,0.98
2024-02-23T10:54:02.422Z,1.08
2024-02-23T10:56:30.694Z,0.70
2024-02-23T10:58:58.678Z,0.90
2024-02-23T11:01:28.761Z,1.20
2024-02-23T11:03:57.326Z,1.02
2024-02-23T11:06:29.969Z,1.33
2024-02-23T11:09:08.482Z,1.08
2024-02-23T11:11:36.656Z,1.15
2024-02-23T11:14:10.063Z,1.15
2024-02-23T11:16:43.317Z,1.05
2024-02-23T11:19:12.895Z,1.13
2024-02-23T11:21:41.083Z,0.80
2024-02-23T11:24:09.455Z,1.40
2024-02-23T11:26:39.589Z,1.38
2024-02-23T11:31:48.286Z,0.98
2024-02-23T11:34:23.834Z,1.00
2024-02-23T11:36:55.579Z,1.08
2024-02-23T11:39:26.772Z,0.90
2024-02-23T11:41:54.728Z,0.75
2024-02-23T11:44:22.738Z,0.98
2024-02-23T11:46:52.219Z,0.98
2024-02-23T11:49:20.229Z,1.17
2024-02-23T11:51:48.373Z,0.98
2024-02-23T11:54:16.780Z,0.70
2024-02-23T11:56:44.990Z,0.80
2024-02-23T11:59:13.695Z,0.82
2024-02-23T12:01:41.772Z,1.10
2024-02-23T12:04:11.114Z,1.05
2024-02-23T12:06:39.297Z,1.10
2024-02-23T12:09:07.416Z,0.77
2024-02-23T12:11:36.152Z,1.00
2024-02-23T12:14:08.906Z,1.00
2024-02-23T12:16:37.688Z,1.17
2024-02-23T12:19:05.681Z,0.93
2024-02-23T12:21:36.886Z,1.00
2024-02-23T12:24:07.464Z,1.00
2024-02-23T12:26:35.908Z,1.17
2024-02-23T12:29:07.570Z,1.33
2024-02-23T12:31:35.927Z,0.90
2024-02-23T12:34:04.071Z,1.08
2024-02-23T12:36:36.250Z,0.90
2024-02-23T12:39:05.681Z,0.82
2024-02-23T12:41:34.215Z,0.83
2024-02-23T12:44:02.226Z,0.93
2024-02-23T12:46:30.112Z,1.17
2024-02-23T12:48:58.151Z,1.42
2024-02-23T12:51:27.830Z,1.52
2024-02-23T12:53:55.909Z,1.10
2024-02-23T12:56:34.145Z,0.93
2024-02-23T12:59:02.329Z,0.70
2024-02-23T13:01:31.016Z,0.93
2024-02-23T13:03:59.070Z,0.90
2024-02-23T13:06:27.145Z,0.90
2024-02-23T13:08:55.252Z,0.95
2024-02-23T13:11:23.468Z,0.70
2024-02-23T13:13:52.849Z,0.93
2024-02-23T13:16:21.080Z,0.88
2024-02-23T13:18:49.090Z,1.02
2024-02-23T13:21:17.290Z,0.80
2024-02-23T13:23:45.381Z,0.95
2024-02-23T13:26:15.742Z,0.70
2024-02-23T13:28:44.418Z,1.05
2024-02-23T13:31:14.727Z,0.88
2024-02-23T13:33:42.852Z,1.00
2024-02-23T13:36:11.631Z,1.15
2024-02-23T13:38:40.918Z,1.10
2024-02-23T13:41:09.227Z,1.00
2024-02-23T13:43:37.229Z,0.77
2024-02-23T13:46:05.717Z,0.80
2024-02-23T13:48:35.275Z,1.02
2024-02-23T13:51:04.741Z,1.13
2024-02-23T13:53:32.238Z,0.90
2024-02-23T13:56:01.646Z,0.98
2024-02-23T13:58:29.982Z,1.00
2024-02-23T14:00:58.307Z,1.00
2024-02-23T14:03:26.510Z,1.30
2024-02-23T14:05:56.028Z,0.90
2024-02-23T14:08:24.040Z,1.10
2024-02-23T14:10:52.064Z,1.15
2024-02-23T14:13:20.985Z,1.65
2024-02-23T14:15:47.984Z,0.95
2024-02-23T14:18:16.067Z,1.17
2024-02-23T14:20:44.155Z,1.00
2024-02-23T14:23:13.741Z,1.33
2024-02-23T14:25:41.709Z,1.23
2024-02-23T14:28:10.972Z,1.83
2024-02-23T14:30:39.024Z,3.00
2024-02-23T14:33:07.169Z,3.00
2024-02-23T14:35:35.173Z,3.00
2024-02-23T14:38:05.556Z,4.68
2024-02-23T14:40:35.105Z,1.00
2024-02-23T14:43:03.469Z,1.25
2024-02-23T14:45:31.459Z,1.02
2024-02-23T14:47:59.858Z,2.20
2024-02-23T14:50:28.052Z,1.85
2024-02-23T14:52:56.343Z,1.95
2024-02-23T14:55:24.444Z,1.63
2024-02-23T14:57:54.034Z,1.90
2024-02-23T15:00:22.257Z,1.50
2024-02-23T15:02:50.376Z,1.10
2024-02-23T15:05:19.331Z,1.00
2024-02-23T15:07:47.608Z,1.30
2024-02-23T15:10:15.965Z,2.80
2024-02-23T15:12:44.038Z,1.80
2024-02-23T15:15:13.540Z,1.48
2024-02-23T15:17:43.521Z,1.25
2024-02-23T15:20:12.519Z,2.17
2024-02-23T15:22:43.582Z,1.05
2024-02-23T15:25:11.616Z,1.20
2024-02-23T15:27:41.126Z,1.10
2024-02-23T15:30:11.553Z,1.45
2024-02-23T15:32:41.055Z,1.63
2024-02-23T15:35:09.557Z,1.00
2024-02-23T15:37:37.704Z,2.35
2024-02-23T15:40:06.770Z,1.45
2024-02-23T15:42:36.823Z,1.35
2024-02-23T15:47:33.099Z,0.90
2024-02-23T15:50:22.312Z,1.10
2024-02-23T15:52:51.088Z,1.17
2024-02-23T15:55:19.231Z,1.33
2024-02-23T15:57:47.161Z,2.88
2024-02-23T16:00:15.879Z,2.17
2024-02-23T16:02:44.079Z,2.50
2024-02-23T16:05:13.663Z,1.33
2024-02-23T16:07:41.686Z,1.55
2024-02-23T16:10:10.519Z,6.78
2024-02-23T16:12:38.952Z,1.60
2024-02-23T16:15:09.272Z,1.35
2024-02-23T16:17:38.138Z,1.75
2024-02-23T16:20:08.833Z,2.83
2024-02-23T16:22:38.255Z,1.90
2024-02-23T16:25:06.842Z,1.90
2024-02-23T16:27:34.856Z,2.33
2024-02-23T16:30:02.808Z,1.83
2024-02-23T16:32:30.820Z,1.25
2024-02-23T16:34:58.859Z,1.95
2024-02-23T16:37:25.898Z,1.73
2024-02-23T16:39:55.348Z,1.30
2024-02-23T16:42:23.443Z,1.48
2024-02-23T16:44:51.414Z,1.92
2024-02-23T16:47:19.471Z,2.45
2024-02-23T16:49:47.467Z,2.13
2024-02-23T16:52:15.432Z,1.92
2024-02-23T16:54:43.386Z,2.08
2024-02-23T16:57:12.701Z,2.67
2024-02-23T16:59:40.665Z,1.88
2024-02-23T17:02:08.847Z,3.25
2024-02-23T17:04:37.117Z,5.75
2024-02-23T17:07:06.745Z,3.00
2024-02-23T17:09:35.561Z,3.55
2024-02-23T17:12:03.829Z,3.58
2024-02-23T17:14:33.327Z,4.45
2024-02-23T17:17:03.294Z,3.35
2024-02-23T17:19:34.310Z,1.88
2024-02-23T17:22:02.369Z,1.75
2024-02-23T17:24:30.275Z,2.03
2024-02-23T17:26:58.561Z,2.03
2024-02-23T17:29:27.761Z,1.35
2024-02-23T17:31:57.303Z,1.40
2024-02-23T17:34:25.400Z,1.92
2024-02-23T17:36:53.373Z,1.90
2024-02-23T17:39:21.352Z,1.73
2024-02-23T17:41:49.730Z,1.30
2024-02-23T17:44:21.946Z,1.40
2024-02-23T17:46:49.915Z,1.83
2024-02-23T17:49:20.557Z,1.45
2024-02-23T17:51:48.607Z,1.33
2024-02-23T17:54:16.578Z,1.80
2024-02-23T17:56:44.577Z,1.20
2024-02-23T17:59:12.695Z,1.65
2024-02-23T18:01:40.667Z,1.95
2024-02-23T18:04:12.261Z,1.83
2024-02-23T18:06:42.114Z,2.13
2024-02-23T18:09:10.965Z,1.42
2024-02-23T18:11:39.422Z,1.50
2024-02-23T18:14:07.562Z,1.50
2024-02-23T18:16:35.555Z,1.48
2024-02-23T18:19:05.032Z,1.20
2024-02-23T18:21:33.221Z,1.63
2024-02-23T18:24:02.989Z,1.40
2024-02-23T18:26:31.015Z,2.65
2024-02-23T18:28:59.056Z,3.42
2024-02-23T18:31:27.071Z,2.58
2024-02-23T18:33:55.166Z,2.60
2024-02-23T18:36:23.938Z,2.75
2024-02-23T18:38:52.659Z,1.60
2024-02-23T18:41:22.079Z,2.20
2024-02-23T18:43:50.002Z,4.80
2024-02-23T18:46:18.096Z,2.13
2024-02-23T18:48:48.543Z,3.63
2024-02-23T18:51:20.558Z,2.50
2024-02-23T18:53:48.822Z,4.72
2024-02-23T18:56:16.844Z,4.55
2024-02-23T18:58:46.209Z,3.92
2024-02-23T19:01:14.263Z,8.45
2024-02-23T19:03:44.444Z,3.97
2024-02-23T19:06:16.568Z,3.08
2024-02-23T19:08:44.726Z,4.22
2024-02-23T19:11:13.365Z,4.60
2024-02-23T19:13:41.300Z,4.53
2024-02-23T19:16:15.880Z,3.13
2024-02-23T19:18:46.139Z,3.47
2024-02-23T19:23:41.926Z,3.55
2024-02-23T19:26:09.874Z,6.68
2024-02-23T19:28:41.182Z,1.90
2024-02-23T19:31:09.248Z,4.53
2024-02-23T19:33:38.805Z,5.00
2024-02-23T19:36:10.754Z,1.83
2024-02-23T19:38:39.667Z,4.00
2024-02-23T19:41:07.685Z,2.22
2024-02-23T19:43:35.682Z,2.90
2024-02-23T19:46:11.152Z,3.10
2024-02-23T19:48:46.481Z,2.08
2024-02-23T19:51:15.213Z,2.35
2024-02-23T19:53:44.125Z,2.70
2024-02-23T19:56:13.998Z,1.25
2024-02-23T19:58:42.312Z,1.60
2024-02-23T20:01:11.241Z,2.42
2024-02-23T20:03:39.308Z,2.10
2024-02-23T20:06:13.904Z,1.50
2024-02-23T20:08:42.501Z,1.50
2024-02-23T20:11:10.801Z,1.58
2024-02-23T20:13:38.852Z,2.00
2024-02-23T20:16:07.009Z,2.75
2024-02-23T20:18:35.105Z,2.50
2024-02-23T20:21:03.234Z,4.05
2024-02-23T20:23:32.646Z,3.50
2024-02-23T20:26:00.739Z,2.80
2024-02-23T20:28:31.211Z,3.85
2024-02-23T20:31:05.258Z,5.28
2024-02-23T20:33:34.624Z,8.30
2024-02-23T20:36:03.181Z,2.80
2024-02-23T20:38:32.788Z,5.38
2024-02-23T20:41:01.015Z,7.90
2024-02-23T20:43:29.442Z,9.32
2024-02-23T20:45:58.274Z,5.30
2024-02-23T20:48:26.413Z,7.47
2024-02-23T20:50:54.596Z,4.13
2024-02-23T20:53:22.622Z,8.23
2024-02-23T20:55:52.102Z,3.75
2024-02-23T20:58:20.072Z,11.47
2024-02-23T21:00:49.262Z,8.48
2024-02-23T21:03:21.709Z,5.28
2024-02-23T21:05:48.949Z,4.13
2024-02-23T21:08:17.142Z,3.28
2024-02-23T21:10:45.276Z,4.28
2024-02-23T21:13:14.789Z,2.92
2024-02-23T21:15:43.140Z,5.50
2024-02-23T21:18:16.252Z,5.30
2024-02-23T21:20:45.721Z,3.22
2024-02-23T21:23:14.398Z,3.58
2024-02-23T21:25:43.013Z,2.45
2024-02-23T21:28:11.156Z,2.30
2024-02-23T21:30:44.779Z,3.28
2024-02-23T21:33:13.625Z,2.97
2024-02-23T21:35:42.106Z,4.00
2024-02-23T21:38:10.686Z,3.97
2024-02-23T21:40:39.050Z,4.10
2024-02-23T21:43:07.917Z,2.88
2024-02-23T21:45:36.039Z,2.47
2024-02-23T21:48:06.642Z,2.58
2024-02-23T21:50:34.772Z,1.98
2024-02-23T21:53:02.776Z,2.50
2024-02-23T21:55:30.744Z,2.72
2024-02-23T21:57:59.020Z,2.72
2024-02-23T22:00:27.148Z,2.90
2024-02-23T22:02:55.403Z,3.50
2024-02-23T22:05:24.826Z,2.97
2024-02-23T22:07:52.818Z,2.10
2024-02-23T22:10:20.808Z,2.10
2024-02-23T22:12:48.812Z,2.85
2024-02-23T22:15:17.326Z,3.00
2024-02-23T22:17:45.874Z,4.10
2024-02-23T22:20:14.597Z,3.80
2024-02-23T22:22:44.273Z,2.50
2024-02-23T22:25:12.402Z,3.30
2024-02-23T22:27:40.403Z,2.22
2024-02-23T22:30:09.696Z,2.85
2024-02-23T22:32:38.342Z,2.57
2024-02-23T22:35:07.319Z,2.30
2024-02-23T22:37:35.344Z,3.90
2024-02-23T22:40:05.458Z,5.45
2024-02-23T22:42:33.628Z,13.77
2024-02-23T22:45:04.023Z,6.50
2024-02-23T22:47:32.198Z,7.00
2024-02-23T22:50:00.341Z,7.63
2024-02-23T22:52:28.429Z,4.93
2024-02-23T22:54:57.172Z,2.03
2024-02-23T22:57:29.289Z,1.98
2024-02-23T22:59:57.409Z,2.33
2024-02-23T23:02:25.390Z,2.03
2024-02-23T23:04:53.374Z,1.92
2024-02-23T23:07:21.598Z,1.85
2024-02-23T23:09:49.742Z,2.00
2024-02-23T23:12:17.933Z,2.13
2024-02-23T23:14:47.451Z,2.25
2024-02-23T23:17:15.539Z,2.42
2024-02-23T23:19:45.865Z,2.47
2024-02-23T23:24:41.749Z,2.75
2024-02-23T23:27:09.683Z,4.35
2024-02-23T23:29:38.146Z,3.17
2024-02-23T23:32:10.822Z,4.18
2024-02-23T23:34:39.540Z,3.22
2024-02-23T23:37:07.558Z,2.90
2024-02-23T23:39:35.801Z,3.15
2024-02-23T23:42:03.777Z,3.67
2024-02-23T23:44:31.776Z,3.63
2024-02-23T23:46:59.778Z,4.03
2024-02-23T23:49:29.119Z,4.22
2024-02-23T23:52:03.837Z,4.50
2024-02-23T23:54:33.326Z,4.38
2024-02-23T23:57:01.653Z,4.32
2024-02-23T23:59:29.668Z,3.72
